Time;durP1;ratioP1;P1;durP2;ratioP2;P2;SDS_P1;SDS_P2;PMS_P1;PMS_P2;Temp;Humidity;BMP_temperature;BMP_pressure;BME280_temperature;BME280_humidity;BME280_pressure;Samples;Min_cycle;Max_cycle;Signal;HPM_P1;HPM_P2
2023/04/21 00:01:08;;;;;;;38.13;34.63;;;;;;;6.68;100.00;101425.22;5047896;28;20029;-83
2023/04/21 00:03:37;;;;;;;38.13;34.63;;;;;;;6.65;100.00;101425.38;5048890;28;20040;-83
2023/04/21 00:06:05;;;;;;;37.85;34.22;;;;;;;6.63;100.00;101424.59;5051736;28;20111;-82
2023/04/21 00:08:31;;;;;;;37.47;33.80;;;;;;;6.63;100.00;101421.97;5046478;28;20033;-83
2023/04/21 00:10:56;;;;;;;39.35;35.65;;;;;;;6.62;100.00;101417.66;5051389;28;20033;-82
2023/04/21 00:13:22;;;;;;;40.30;36.10;;;;;;;6.60;100.00;101418.59;5051186;28;20086;-83
2023/04/21 00:15:48;;;;;;;41.20;37.13;;;;;;;6.57;100.00;101413.50;5060846;28;20057;-83
2023/04/21 00:18:14;;;;;;;40.40;36.55;;;;;;;6.54;100.00;101402.34;5031225;28;20037;-83
2023/04/21 00:20:39;;;;;;;40.83;37.03;;;;;;;6.57;100.00;101410.06;5043193;28;20027;-83
2023/04/21 00:23:04;;;;;;;42.83;38.78;;;;;;;6.56;100.00;101401.38;5048983;28;20045;-84
2023/04/21 00:25:30;;;;;;;42.97;38.88;;;;;;;6.52;100.00;101394.59;5048236;28;20029;-83
2023/04/21 00:27:56;;;;;;;41.75;37.75;;;;;;;6.53;100.00;101395.44;5049460;28;20385;-83
2023/04/21 00:30:21;;;;;;;42.65;38.47;;;;;;;6.52;100.00;101393.75;5049831;28;20509;-83
2023/04/21 00:32:46;;;;;;;42.70;38.50;;;;;;;6.50;100.00;101385.97;5050340;28;20488;-83
2023/04/21 00:35:12;;;;;;;43.88;39.50;;;;;;;6.54;100.00;101386.69;5047025;28;20033;-83
2023/04/21 00:37:39;;;;;;;42.95;38.85;;;;;;;6.56;100.00;101390.91;5048183;28;20063;-83
2023/04/21 00:40:05;;;;;;;43.08;38.88;;;;;;;6.55;100.00;101390.97;5047405;28;20037;-84
2023/04/21 00:42:30;;;;;;;43.38;39.10;;;;;;;6.55;100.00;101385.75;5048276;28;20024;-84
2023/04/21 00:44:55;;;;;;;43.55;39.35;;;;;;;6.55;100.00;101383.13;5048396;28;20031;-84
2023/04/21 00:47:21;;;;;;;44.17;39.97;;;;;;;6.55;100.00;101377.91;5048769;28;20021;-84
2023/04/21 00:49:47;;;;;;;42.97;38.67;;;;;;;6.54;100.00;101382.28;5048773;28;20021;-84
2023/04/21 00:52:15;;;;;;;43.92;39.63;;;;;;;6.55;100.00;101388.38;5062761;28;20071;-84
2023/04/21 00:54:41;;;;;;;45.20;40.90;;;;;;;6.53;100.00;101388.44;5049436;28;20477;-84
2023/04/21 00:57:08;;;;;;;44.85;40.42;;;;;;;6.56;100.00;101390.91;5047203;28;20032;-85
2023/04/21 00:59:33;;;;;;;45.47;40.80;;;;;;;6.57;100.00;101391.75;5047577;28;20058;-84
2023/04/21 01:02:04;;;;;;;46.97;41.42;;;;;;;6.57;100.00;101381.28;5045888;28;20029;-84
2023/04/21 01:04:35;;;;;;;45.50;40.92;;;;;;;6.56;100.00;101379.59;5031146;28;20025;-84
2023/04/21 01:07:02;;;;;;;44.53;40.13;;;;;;;6.53;100.00;101379.75;5032111;28;20025;-84
2023/04/21 01:09:28;;;;;;;43.58;39.28;;;;;;;6.54;100.00;101381.44;5050065;28;20017;-84
2023/04/21 01:12:10;;;;;;;44.78;40.28;;;;;;;6.54;100.00;101371.00;5049177;28;20466;-85
2023/04/21 01:14:37;;;;;;;44.13;39.72;;;;;;;6.52;100.00;101370.22;5060758;28;20046;-85
2023/04/21 01:17:06;;;;;;;43.17;39.03;;;;;;;6.51;100.00;101371.13;5045629;28;20024;-85
2023/04/21 01:19:38;;;;;;;44.03;39.53;;;;;;;6.51;100.00;101373.75;5048682;28;20028;-86
2023/04/21 01:22:09;;;;;;;44.50;40.10;;;;;;;6.51;100.00;101365.91;5050175;28;20029;-85
2023/04/21 01:24:39;;;;;;;44.30;39.78;;;;;;;6.54;100.00;101350.06;5045290;28;20013;-86
2023/04/21 01:27:12;;;;;;;45.65;40.83;;;;;;;6.53;100.00;101348.38;5042070;28;20033;-86
2023/04/21 01:29:40;;;;;;;44.38;39.88;;;;;;;6.55;100.00;101346.53;5050519;28;20048;-86
2023/04/21 01:32:20;;;;;;;45.15;40.63;;;;;;;6.55;100.00;101351.78;5046252;28;20036;-85
2023/04/21 01:34:47;;;;;;;43.47;39.15;;;;;;;6.51;100.00;101339.78;5048034;28;20040;-85
2023/04/21 01:37:16;;;;;;;44.70;40.13;;;;;;;6.55;100.00;101341.31;5047943;28;20060;-85
2023/04/21 01:39:45;;;;;;;43.47;39.03;;;;;;;6.48;100.00;101339.94;5046958;28;20028;-86
2023/04/21 01:42:11;;;;;;;44.92;40.20;;;;;;;6.51;100.00;101334.53;5047558;28;20029;-85
2023/04/21 01:44:37;;;;;;;44.53;39.92;;;;;;;6.53;100.00;101343.16;5047943;28;20469;-85
2023/04/21 01:47:03;;;;;;;44.28;39.67;;;;;;;6.52;100.00;101342.31;5047653;28;20469;-85
2023/04/21 01:49:31;;;;;;;44.80;39.92;;;;;;;6.48;100.00;101334.69;5046585;28;20033;-85
2023/04/21 01:51:57;;;;;;;42.35;38.00;;;;;;;6.44;100.00;101325.31;5049231;28;20025;-85
2023/04/21 01:54:22;;;;;;;41.58;37.25;;;;;;;6.45;100.00;101319.16;5047428;28;20021;-84
2023/04/21 01:56:47;;;;;;;41.45;37.22;;;;;;;6.44;100.00;101312.25;5050381;28;20432;-84
2023/04/21 01:59:13;;;;;;;46.42;37.70;;;;;;;6.42;100.00;101307.09;5049435;28;20481;-84
2023/04/21 02:01:38;;;;;;;40.53;36.35;;;;;;;6.43;100.00;101310.56;5048114;28;20064;-84
2023/04/21 02:04:04;;;;;;;40.97;36.75;;;;;;;6.42;100.00;101304.47;5049689;28;20385;-85
2023/04/21 02:06:32;;;;;;;42.20;37.70;;;;;;;6.40;100.00;101292.38;5043821;28;20032;-84
2023/04/21 02:08:58;;;;;;;41.53;37.17;;;;;;;6.38;100.00;101289.00;5031068;28;20052;-84
2023/04/21 02:11:24;;;;;;;41.00;36.55;;;;;;;6.37;100.00;101296.00;5028808;28;20037;-84
2023/04/21 02:13:54;;;;;;;40.50;36.10;;;;;;;6.38;100.00;101299.44;5029284;28;20021;-85
2023/04/21 02:16:24;;;;;;;40.35;36.08;;;;;;;6.35;100.00;101297.84;5038996;28;20452;-84
2023/04/21 02:18:50;;;;;;;40.20;35.80;;;;;;;6.39;100.00;101302.00;5049082;28;20061;-84
2023/04/21 02:21:16;;;;;;;40.38;36.00;;;;;;;6.42;100.00;101298.41;5042748;28;20051;-84
2023/04/21 02:23:41;;;;;;;39.33;34.85;;;;;;;6.40;100.00;101295.00;5049059;28;20056;-84
2023/04/21 02:26:07;;;;;;;39.53;35.22;;;;;;;6.41;100.00;101292.34;5049320;28;20027;-85
2023/04/21 02:28:32;;;;;;;38.97;34.85;;;;;;;6.37;100.00;101289.94;5048007;28;20024;-85
2023/04/21 02:30:57;;;;;;;40.33;36.03;;;;;;;6.40;100.00;101281.94;5043747;28;20032;-84
2023/04/21 02:33:23;;;;;;;39.40;35.22;;;;;;;6.41;100.00;101288.88;5044695;28;20028;-85
2023/04/21 02:35:48;;;;;;;39.92;35.72;;;;;;;6.42;100.00;101294.03;5049187;28;20033;-85
2023/04/21 02:38:13;;;;;;;39.78;35.45;;;;;;;6.38;100.00;101286.38;5044222;28;20123;-85
2023/04/21 02:40:39;;;;;;;41.83;37.03;;;;;;;6.39;100.00;101285.47;5048483;28;20089;-85
2023/04/21 02:43:05;;;;;;;42.65;37.95;;;;;;;6.41;100.00;101281.88;5048289;28;20044;-85
2023/04/21 02:45:30;;;;;;;41.78;37.28;;;;;;;6.39;100.00;101283.69;5048229;28;20020;-85
2023/04/21 02:47:56;;;;;;;44.90;38.38;;;;;;;6.42;100.00;101288.81;5049756;28;20017;-85
2023/04/21 02:50:21;;;;;;;45.13;39.17;;;;;;;6.42;100.00;101287.97;5047767;28;20112;-84
2023/04/21 02:52:46;;;;;;;43.92;38.78;;;;;;;6.44;100.00;101279.13;5050993;28;20029;-84
2023/04/21 02:55:12;;;;;;;48.33;40.22;;;;;;;6.42;100.00;101285.34;5048884;28;20144;-85
2023/04/21 02:57:37;;;;;;;46.28;40.50;;;;;;;6.39;100.00;101277.63;5052823;28;20044;-84
2023/04/21 03:00:03;;;;;;;45.47;40.50;;;;;;;6.39;100.00;101290.69;5051927;28;20036;-84
2023/04/21 03:02:30;;;;;;;49.45;41.25;;;;;;;6.40;100.00;101284.53;5036275;28;20134;-84
2023/04/21 03:04:55;;;;;;;47.92;41.72;;;;;;;6.40;100.00;101274.09;5068259;28;20021;-84
2023/04/21 03:07:21;;;;;;;48.85;42.22;;;;;;;6.39;100.00;101277.63;5052805;28;20362;-84
2023/04/21 03:09:46;;;;;;;48.13;41.38;;;;;;;6.35;100.00;101271.72;5050604;28;20470;-84
2023/04/21 03:12:11;;;;;;;48.58;41.70;;;;;;;6.35;100.00;101276.09;5048645;28;20017;-84
2023/04/21 03:14:37;;;;;;;47.03;41.40;;;;;;;6.31;100.00;101275.41;5044862;28;20116;-84
2023/04/21 03:17:05;;;;;;;52.10;41.80;;;;;;;6.27;100.00;101279.94;5048171;28;20112;-84
2023/04/21 03:19:31;;;;;;;50.42;42.45;;;;;;;6.24;100.00;101267.00;5041181;28;20021;-84
2023/04/21 03:21:57;;;;;;;49.92;42.75;;;;;;;6.21;100.00;101269.78;5040460;28;20029;-84
2023/04/21 03:24:22;;;;;;;54.05;43.20;;;;;;;6.22;100.00;101273.25;5043325;28;20044;-84
2023/04/21 03:26:48;;;;;;;55.50;44.03;;;;;;;6.22;100.00;101273.25;5030489;28;20394;-84
2023/04/21 03:29:13;;;;;;;53.72;43.75;;;;;;;6.19;100.00;101271.63;5037442;28;20029;-84
2023/04/21 03:31:38;;;;;;;53.13;43.47;;;;;;;6.17;100.00;101272.63;5050399;28;20032;-84
2023/04/21 03:34:04;;;;;;;54.85;45.40;;;;;;;6.17;100.00;101268.25;5050795;28;20481;-83
2023/04/21 03:36:30;;;;;;;54.38;44.78;;;;;;;6.17;100.00;101267.41;5050100;28;20037;-83
2023/04/21 03:38:57;;;;;;;56.75;46.35;;;;;;;6.16;100.00;101261.31;5051402;28;20021;-83
2023/04/21 03:41:22;;;;;;;57.53;47.58;;;;;;;6.14;100.00;101260.56;5051137;28;20718;-83
2023/04/21 03:43:51;;;;;;;56.38;46.72;;;;;;;6.14;100.00;101268.41;5052794;28;20485;-83
2023/04/21 03:46:20;;;;;;;57.72;46.78;;;;;;;6.15;100.00;101271.84;5051850;28;20053;-83
2023/04/21 03:48:46;;;;;;;58.53;46.75;;;;;;;6.17;100.00;101270.84;5049479;28;20020;-84
2023/04/21 03:51:13;;;;;;;60.20;48.05;;;;;;;6.18;100.00;101264.72;5053459;28;20029;-83
2023/04/21 03:53:38;;;;;;;60.35;48.95;;;;;;;6.20;100.00;101267.25;5050707;28;20486;-83
2023/04/21 03:56:04;;;;;;;62.30;49.88;;;;;;;6.22;100.00;101268.88;5050857;28;20031;-83
2023/04/21 03:58:30;;;;;;;63.17;51.40;;;;;;;6.25;100.00;101271.31;5050992;28;20031;-83
2023/04/21 04:00:55;;;;;;;64.32;51.67;;;;;;;6.25;100.00;101273.94;5034213;28;20013;-83
2023/04/21 04:03:21;;;;;;;64.50;51.80;;;;;;;6.29;100.00;101267.63;5049180;28;20025;-83
2023/04/21 04:05:46;;;;;;;66.30;51.67;;;;;;;6.31;100.00;101266.72;5046673;28;20026;-84
2023/04/21 04:08:11;;;;;;;67.35;51.30;;;;;;;6.31;100.00;101266.72;5048171;28;20470;-84
2023/04/21 04:10:37;;;;;;;67.53;53.33;;;;;;;6.34;100.00;101271.78;5039699;28;20127;-83
2023/04/21 04:13:05;;;;;;;70.90;53.40;;;;;;;6.35;100.00;101263.88;5051693;28;20024;-82
2023/04/21 04:15:30;;;;;;;70.22;54.15;;;;;;;6.38;100.00;101262.88;5047714;28;20032;-83
2023/04/21 04:17:56;;;;;;;67.10;53.60;;;;;;;6.39;100.00;101264.56;5032105;28;20025;-84
2023/04/21 04:20:21;;;;;;;69.45;54.92;;;;;;;6.43;100.00;101266.13;5051016;28;20037;-82
2023/04/21 04:22:47;;;;;;;68.57;54.13;;;;;;;6.45;100.00;101264.28;5047601;28;20031;-82
2023/04/21 04:25:15;;;;;;;66.65;53.55;;;;;;;6.47;100.00;101259.81;5050971;28;20025;-83
2023/04/21 04:27:44;;;;;;;68.18;52.97;;;;;;;6.47;100.00;101259.81;5062416;28;20025;-84
2023/04/21 04:30:11;;;;;;;71.68;54.78;;;;;;;6.48;100.00;101261.50;5047167;28;20104;-83
2023/04/21 04:32:40;;;;;;;70.03;54.05;;;;;;;6.49;100.00;101256.19;5050720;28;20485;-83
2023/04/21 04:35:05;;;;;;;69.18;55.42;;;;;;;6.50;100.00;101255.28;5049415;28;20523;-83
2023/04/21 04:37:33;;;;;;;74.15;55.53;;;;;;;6.49;100.00;101250.13;5049173;28;20048;-83
2023/04/21 04:39:58;;;;;;;73.57;57.13;;;;;;;6.55;100.00;101265.50;5050423;28;20532;-83
2023/04/21 04:42:24;;;;;;;71.88;56.25;;;;;;;6.53;100.00;101262.13;5058663;28;20037;-83
2023/04/21 04:44:53;;;;;;;73.45;57.47;;;;;;;6.52;100.00;101268.28;5029130;28;20018;-84
2023/04/21 04:47:18;;;;;;;74.68;56.92;;;;;;;6.55;100.00;101268.97;5030438;28;20029;-83
2023/04/21 04:49:43;;;;;;;73.30;56.95;;;;;;;6.55;100.00;101268.13;5048732;28;20020;-83
2023/04/21 04:52:09;;;;;;;73.93;56.33;;;;;;;6.58;100.00;101267.97;5049468;28;20029;-83
2023/04/21 04:54:35;;;;;;;74.90;56.05;;;;;;;6.59;100.00;101275.72;5048599;28;20052;-83
2023/04/21 04:57:01;;;;;;;74.43;57.97;;;;;;;6.58;100.00;101266.19;5044535;28;20036;-83
2023/04/21 04:59:27;;;;;;;81.88;57.55;;;;;;;6.62;100.00;101263.41;5046432;28;20433;-83
2023/04/21 05:01:52;;;;;;;75.13;57.97;;;;;;;6.59;100.00;101261.81;5046206;28;20029;-83
2023/04/21 05:04:17;;;;;;;77.70;59.70;;;;;;;6.60;100.00;101269.56;5049151;28;20078;-83
2023/04/21 05:06:46;;;;;;;78.80;59.20;;;;;;;6.58;100.00;101267.97;5048911;28;20040;-83
2023/04/21 05:09:14;;;;;;;79.25;60.17;;;;;;;6.60;100.00;101268.72;5030250;28;20060;-83
2023/04/21 05:11:42;;;;;;;76.85;59.85;;;;;;;6.66;100.00;101270.19;5029667;28;20029;-83
2023/04/21 05:14:08;;;;;;;82.97;61.90;;;;;;;6.68;100.00;101263.94;5041575;28;20040;-83
2023/04/21 05:16:36;;;;;;;85.60;63.70;;;;;;;6.69;100.00;101270.88;5040807;28;20035;-83
2023/04/21 05:19:04;;;;;;;81.32;61.00;;;;;;;6.71;100.00;101274.25;5029352;28;20021;-83
2023/04/21 05:21:33;;;;;;;86.00;65.03;;;;;;;6.74;100.00;101273.25;5030489;28;20083;-83
2023/04/21 05:23:58;;;;;;;84.47;63.15;;;;;;;6.80;100.00;101284.22;5030769;28;20032;-83
2023/04/21 05:26:26;;;;;;;85.07;64.55;;;;;;;6.79;100.00;101284.31;5029330;28;20470;-84
2023/04/21 05:28:52;;;;;;;83.90;64.32;;;;;;;6.85;100.00;101290.09;5029146;28;20064;-83
2023/04/21 05:31:17;;;;;;;83.70;63.60;;;;;;;6.87;100.00;101288.25;5053795;28;20111;-83
2023/04/21 05:33:42;;;;;;;84.60;63.65;;;;;;;6.91;100.00;101292.38;5044256;28;20043;-84
2023/04/21 05:36:11;;;;;;;84.88;64.28;;;;;;;6.93;100.00;101294.09;5047915;28;20037;-84
2023/04/21 05:38:37;;;;;;;83.03;63.00;;;;;;;6.93;100.00;101287.09;5040523;28;20045;-82
2023/04/21 05:41:03;;;;;;;83.45;65.68;;;;;;;6.97;100.00;101300.84;5048603;28;20032;-82
2023/04/21 05:43:32;;;;;;;81.57;63.08;;;;;;;7.00;100.00;101298.06;5050658;28;20112;-82
2023/04/21 05:45:58;;;;;;;80.38;61.92;;;;;;;6.99;100.00;101299.84;5051821;28;20040;-82
2023/04/21 05:48:23;;;;;;;83.28;62.95;;;;;;;6.99;100.00;101291.16;5049677;28;20068;-83
2023/04/21 05:50:48;;;;;;;83.05;63.38;;;;;;;7.02;100.00;101298.84;5043091;28;20021;-83
2023/04/21 05:53:14;;;;;;;83.05;62.45;;;;;;;7.02;100.00;101301.44;5044947;28;20032;-83
2023/04/21 05:55:39;;;;;;;81.88;61.78;;;;;;;7.03;100.00;101300.53;5049979;28;20052;-83
2023/04/21 05:58:05;;;;;;;84.82;63.03;;;;;;;7.04;100.00;101307.44;5047878;28;20480;-83
2023/04/21 06:00:30;;;;;;;83.85;64.35;;;;;;;7.09;100.00;101305.44;5048515;28;20479;-82
2023/04/21 06:02:55;;;;;;;84.20;63.47;;;;;;;7.10;100.00;101299.28;5048993;28;20428;-82
2023/04/21 06:05:21;;;;;;;80.25;62.45;;;;;;;7.14;100.00;101295.56;5046964;28;20024;-83
2023/04/21 06:07:46;;;;;;;80.53;62.15;;;;;;;7.21;100.00;101296.97;5047163;28;20421;-83
2023/04/21 06:10:12;;;;;;;79.13;61.58;;;;;;;7.32;100.00;101286.75;5036786;28;20029;-82
2023/04/21 06:13:30;;;;;;;;;;;;;;;;;;;;;
2023/04/21 06:15:55;;;;;;;73.65;58.50;;;;;;;7.42;100.00;101285.34;5019161;28;20138;-82
2023/04/21 06:18:21;;;;;;;72.68;57.45;;;;;;;7.43;100.00;101288.78;5027957;28;20482;-82
2023/04/21 06:20:50;;;;;;;75.20;58.05;;;;;;;7.46;100.00;101294.72;5035934;28;20513;-82
2023/04/21 06:23:16;;;;;;;73.43;57.25;;;;;;;7.62;100.00;101286.91;5061894;28;20021;-82
2023/04/21 06:25:41;;;;;;;74.05;58.00;;;;;;;7.65;100.00;101288.50;5064976;28;20028;-82
2023/04/21 06:28:07;;;;;;;75.32;57.72;;;;;;;7.74;100.00;101290.59;5050644;28;20025;-82
2023/04/21 06:30:32;;;;;;;69.60;55.50;;;;;;;7.75;100.00;101289.69;5051806;28;20532;-82
2023/04/21 06:32:57;;;;;;;71.18;55.90;;;;;;;7.74;100.00;101285.38;5046804;28;20036;-82
2023/04/21 06:35:23;;;;;;;67.70;54.97;;;;;;;7.72;100.00;101298.53;5052375;28;20040;-82
2023/04/21 06:37:48;;;;;;;69.13;56.33;;;;;;;7.77;100.00;101301.75;5053834;28;20925;-82
2023/04/21 06:40:16;;;;;;;72.45;59.03;;;;;;;7.87;100.00;101299.47;5053301;28;20111;-82
2023/04/21 06:42:42;;;;;;;67.68;55.78;;;;;;;7.95;100.00;101299.88;5053049;28;20056;-82
2023/04/21 06:45:07;;;;;;;67.60;54.78;;;;;;;8.03;100.00;101300.31;5046958;28;20124;-82
2023/04/21 06:47:33;;;;;;;65.70;54.95;;;;;;;8.04;100.00;101296.78;5035899;28;20120;-82
2023/04/21 06:49:58;;;;;;;64.13;54.92;;;;;;;8.03;100.00;101295.09;5052843;28;20021;-82
2023/04/21 06:52:24;;;;;;;67.68;55.35;;;;;;;8.14;100.00;101284.81;5044345;28;20570;-84
2023/04/21 06:54:49;;;;;;;60.35;52.22;;;;;;;8.23;100.00;101293.09;5051033;28;20393;-83
2023/04/21 06:57:16;;;;;;;60.45;50.65;;;;;;;8.37;100.00;101293.16;5036587;28;20031;-84
2023/04/21 06:59:41;;;;;;;59.83;50.72;;;;;;;8.42;100.00;101285.91;5051535;28;20116;-84
2023/04/21 07:02:06;;;;;;;56.65;50.50;;;;;;;8.50;100.00;101294.16;5052260;28;20133;-84
2023/04/21 07:04:32;;;;;;;56.13;48.60;;;;;;;8.44;100.00;101290.13;5051894;28;20103;-84
2023/04/21 07:06:57;;;;;;;54.95;48.95;;;;;;;8.45;100.00;101288.34;5051238;28;20032;-84
2023/04/21 07:09:22;;;;;;;55.92;49.45;;;;;;;8.55;100.00;101289.50;5042542;28;20044;-83
2023/04/21 07:11:48;;;;;;;55.80;46.95;;;;;;;8.62;100.00;101288.19;5040000;28;20082;-84
2023/04/21 07:14:13;;;;;;;55.30;49.42;;;;;;;8.83;100.00;101295.75;5043658;28;20039;-84
2023/04/21 07:16:39;;;;;;;54.42;47.40;;;;;;;8.97;100.00;101293.97;5046047;28;20033;-83
2023/04/21 07:19:04;;;;;;;57.55;45.47;;;;;;;9.13;100.00;101288.63;5041466;28;20049;-81
2023/04/21 07:21:30;;;;;;;51.58;45.97;;;;;;;9.29;100.00;101302.53;5035419;28;20105;-83
2023/04/21 07:23:57;;;;;;;47.35;42.13;;;;;;;9.41;100.00;101298.31;5044472;28;20662;-82
2023/04/21 07:26:22;;;;;;;45.83;40.92;;;;;;;9.62;100.00;101304.03;5037019;28;20037;-82
2023/04/21 07:28:54;;;;;;;45.28;38.67;;;;;;;9.66;100.00;101306.34;5041045;28;20086;-82
2023/04/21 07:31:20;;;;;;;40.45;36.10;;;;;;;9.82;99.76;101298.34;5038596;28;20825;-82
2023/04/21 07:33:45;;;;;;;40.95;36.72;;;;;;;9.97;100.00;101291.25;5046208;28;20035;-82
2023/04/21 07:36:10;;;;;;;42.83;38.22;;;;;;;10.16;99.29;101285.66;5057058;28;20016;-82
2023/04/21 07:38:41;;;;;;;40.47;35.90;;;;;;;10.40;98.33;101283.22;5041256;28;20057;-82
2023/04/21 07:41:10;;;;;;;37.42;33.53;;;;;;;10.64;97.86;101281.59;5051533;28;20040;-82
2023/04/21 07:43:36;;;;;;;36.40;32.72;;;;;;;10.78;93.88;101283.28;5044881;28;20026;-82
2023/04/21 07:46:01;;;;;;;34.85;31.23;;;;;;;10.75;91.91;101283.50;5042202;28;20100;-83
2023/04/21 07:48:28;;;;;;;35.60;31.98;;;;;;;10.82;94.05;101279.53;5050781;28;20017;-80
2023/04/21 07:50:54;;;;;;;34.00;30.58;;;;;;;10.88;92.05;101285.22;5050215;28;20040;-80
2023/04/21 07:53:19;;;;;;;34.13;30.63;;;;;;;11.07;92.05;101284.78;5050062;28;20025;-81
2023/04/21 07:55:45;;;;;;;30.02;26.92;;;;;;;11.12;88.25;101287.94;5043418;28;20037;-83
2023/04/21 07:58:10;;;;;;;30.10;27.02;;;;;;;11.32;87.70;101288.38;5044330;28;20370;-82
2023/04/21 08:00:36;;;;;;;30.42;27.33;;;;;;;11.29;86.37;101285.00;5051315;28;20028;-82
2023/04/21 08:03:01;;;;;;;29.95;26.95;;;;;;;11.31;87.97;101282.25;5034038;28;20021;-82
2023/04/21 08:05:27;;;;;;;28.77;25.92;;;;;;;11.44;87.20;101279.59;5046920;28;20116;-82
2023/04/21 08:07:53;;;;;;;31.00;27.80;;;;;;;11.56;86.02;101270.81;5050140;28;20099;-81
2023/04/21 08:10:18;;;;;;;27.85;25.05;;;;;;;11.71;84.93;101277.63;5050360;28;20017;-81
2023/04/21 08:12:44;;;;;;;25.67;22.95;;;;;;;11.83;82.23;101273.28;5048369;28;20126;-82
2023/04/21 08:15:11;;;;;;;26.60;23.83;;;;;;;11.98;81.97;101273.97;5044115;28;20415;-83
2023/04/21 08:17:37;;;;;;;25.85;23.23;;;;;;;12.00;81.34;101274.69;5042759;28;20485;-81
2023/04/21 08:20:04;;;;;;;26.05;23.55;;;;;;;12.21;82.36;101276.63;5040634;28;20032;-82
2023/04/21 08:22:32;;;;;;;26.00;23.40;;;;;;;12.44;80.98;101268.81;5047434;28;20029;-82
2023/04/21 08:24:57;;;;;;;27.15;24.38;;;;;;;12.68;80.30;101274.00;5044501;28;20083;-80
2023/04/21 08:27:23;;;;;;;24.92;22.40;;;;;;;12.94;78.63;101280.78;5043631;28;20040;-81
2023/04/21 08:29:50;;;;;;;23.40;21.20;;;;;;;13.03;75.36;101277.44;5039610;28;20025;-82
2023/04/21 08:32:21;;;;;;;22.63;20.42;;;;;;;13.09;75.53;101271.66;5046920;28;20021;-82
2023/04/21 08:34:50;;;;;;;21.95;19.85;;;;;;;13.12;73.94;101268.78;5043661;28;20040;-82
2023/04/21 08:37:17;;;;;;;21.80;19.52;;;;;;;13.10;73.35;101268.06;5046227;28;20044;-82
2023/04/21 08:39:43;;;;;;;20.65;18.60;;;;;;;13.09;71.17;101265.53;5047283;28;20033;-83
2023/04/21 08:42:08;;;;;;;21.90;19.77;;;;;;;13.23;72.56;101267.16;5036677;28;20047;-83
2023/04/21 08:44:34;;;;;;;21.25;19.15;;;;;;;13.33;71.71;101268.13;5041848;28;20476;-82
2023/04/21 08:47:05;;;;;;;21.40;19.13;;;;;;;13.46;72.17;101268.81;5036927;28;20040;-82
2023/04/21 08:49:32;;;;;;;20.20;18.17;;;;;;;13.56;69.58;101261.00;5043622;28;20033;-83
2023/04/21 08:52:01;;;;;;;19.85;17.95;;;;;;;13.66;69.96;101257.50;5046462;28;20160;-83
2023/04/21 08:54:27;;;;;;;20.15;18.20;;;;;;;13.97;71.70;101262.94;5045709;28;20029;-82
2023/04/21 08:56:52;;;;;;;18.48;16.77;;;;;;;13.88;66.50;101259.25;5047881;28;20787;-82
2023/04/21 08:59:17;;;;;;;19.13;17.17;;;;;;;13.89;67.33;101254.78;5058424;28;20119;-83
2023/04/21 09:02:05;;;;;;;18.33;16.63;;;;;;;14.01;68.19;101254.66;5050076;28;20066;-83
2023/04/21 09:04:31;;;;;;;19.60;17.70;;;;;;;14.24;69.81;101242.16;5049791;28;20044;-82
2023/04/21 09:06:56;;;;;;;19.10;17.30;;;;;;;14.57;67.08;101245.63;5047068;28;20068;-83
2023/04/21 09:09:22;;;;;;;18.30;16.55;;;;;;;14.76;64.86;101245.75;5049011;28;20032;-81
2023/04/21 09:11:57;;;;;;;16.50;14.07;;;;;;;15.00;65.75;101238.34;5048536;28;20017;-83
2023/04/21 09:14:32;;;;;;;15.73;13.93;;;;;;;15.23;65.00;101244.31;5050071;28;20507;-85
2023/04/21 09:16:59;;;;;;;16.77;15.18;;;;;;;15.31;63.35;101241.00;5041493;28;20028;-81
2023/04/21 09:19:29;;;;;;;16.23;14.70;;;;;;;15.25;63.61;101239.72;5047169;28;20048;-82
2023/04/21 09:21:55;;;;;;;15.23;13.73;;;;;;;15.35;62.91;101237.09;5047280;28;20078;-84
2023/04/21 09:24:20;;;;;;;14.65;13.27;;;;;;;15.23;63.45;101232.88;5064290;28;20017;-82
2023/04/21 09:26:52;;;;;;;15.90;14.35;;;;;;;14.93;62.18;101236.38;5042974;28;20478;-84
2023/04/21 09:29:24;;;;;;;15.68;14.18;;;;;;;14.66;62.77;101234.25;5044409;28;20382;-84
2023/04/21 09:31:51;;;;;;;15.77;14.18;;;;;;;14.78;63.76;101230.56;5049064;28;20025;-82
2023/04/21 09:34:20;;;;;;;15.27;13.70;;;;;;;14.77;61.98;101231.53;5045872;28;20036;-85
2023/04/21 09:36:47;;;;;;;15.55;13.95;;;;;;;15.05;62.99;101235.31;5041635;28;20049;-85
2023/04/21 09:39:13;;;;;;;16.10;14.50;;;;;;;15.09;63.72;101235.88;5046720;28;20095;-84
2023/04/21 09:41:40;;;;;;;17.50;15.80;;;;;;;14.88;63.75;101227.97;5050090;28;20025;-85
2023/04/21 09:44:05;;;;;;;16.52;14.93;;;;;;;15.00;64.33;101230.41;5049515;28;20389;-85
2023/04/21 09:46:35;;;;;;;14.60;13.20;;;;;;;15.50;60.27;101227.78;5047154;28;20013;-84
2023/04/21 09:49:02;;;;;;;11.13;10.02;;;;;;;15.84;57.10;101233.63;5045722;28;20043;-85
2023/04/21 09:51:30;;;;;;;13.40;12.10;;;;;;;16.06;55.55;101224.56;5047787;28;20447;-85
2023/04/21 09:53:59;;;;;;;12.88;11.48;;;;;;;16.28;56.09;101226.91;5057945;28;20482;-84
2023/04/21 09:56:27;;;;;;;13.73;11.43;;;;;;;16.53;55.69;101216.69;5045854;28;20442;-85
2023/04/21 09:58:56;;;;;;;12.95;11.73;;;;;;;16.89;54.85;101215.94;5047996;28;20554;-83
2023/04/21 10:01:26;;;;;;;12.20;11.00;;;;;;;17.26;53.58;101220.41;5046854;28;20025;-84
2023/04/21 10:03:52;;;;;;;12.50;11.27;;;;;;;17.83;53.45;101205.06;5049551;28;20029;-83
2023/04/21 10:06:18;;;;;;;12.68;10.65;;;;;;;17.55;51.54;101205.09;5048470;28;20024;-81
2023/04/21 10:08:45;;;;;;;11.52;10.40;;;;;;;17.83;50.77;101200.59;5048623;28;20576;-84
2023/04/21 10:11:11;;;;;;;12.55;11.20;;;;;;;18.65;49.68;101196.78;5046802;28;20017;-82
2023/04/21 10:13:38;;;;;;;11.45;10.30;;;;;;;19.68;47.70;101194.91;5046276;28;20696;-82
2023/04/21 10:16:06;;;;;;;12.50;11.05;;;;;;;20.20;44.77;101189.25;5041080;28;20063;-84
2023/04/21 10:18:37;;;;;;;12.32;11.13;;;;;;;20.46;43.79;101195.28;5063297;28;20032;-85
2023/04/21 10:21:03;;;;;;;12.05;10.93;;;;;;;21.12;42.69;101186.06;5048659;28;20021;-83
2023/04/21 10:23:43;;;;;;;13.07;11.68;;;;;;;21.77;44.39;101180.38;5048828;28;20025;-84
2023/04/21 10:26:16;;;;;;;14.63;13.10;;;;;;;22.18;41.16;101170.19;5047272;28;20420;-82
2023/04/21 10:28:59;;;;;;;15.52;14.10;;;;;;;21.59;42.63;101167.25;5048288;28;20492;-85
2023/04/21 10:31:48;;;;;;;15.50;14.00;;;;;;;21.18;42.67;101163.94;5041050;28;20032;-81
2023/04/21 10:34:15;;;;;;;14.98;13.52;;;;;;;20.87;43.48;101171.13;5055384;28;20593;-84
2023/04/21 10:36:44;;;;;;;14.32;12.88;;;;;;;21.34;41.03;101156.91;5044142;28;20640;-84
2023/04/21 10:39:14;;;;;;;12.85;11.65;;;;;;;21.25;41.60;101153.44;5058430;28;20508;-83
2023/04/21 10:41:42;;;;;;;13.82;12.45;;;;;;;21.07;42.77;101156.31;5048629;28;20025;-84
2023/04/21 10:44:12;;;;;;;13.63;12.27;;;;;;;20.22;42.96;101160.53;5046086;28;20032;-84
2023/04/21 10:46:44;;;;;;;12.85;11.65;;;;;;;19.25;44.76;101146.06;5043091;28;20036;-83
2023/04/21 10:49:16;;;;;;;;;;;;;;;19.34;48.52;101147.75;5055415;28;20013;-83
2023/04/21 10:51:57;;;;;;;14.98;13.43;;;;;;;18.28;51.63;101156.19;5037031;28;20380;-82
2023/04/21 10:54:24;;;;;;;15.73;14.13;;;;;;;17.49;52.04;101155.13;5045957;28;20382;-82
2023/04/21 10:56:58;;;;;;;15.75;14.23;;;;;;;16.92;54.06;101165.13;5047276;28;20035;-81
2023/04/21 10:59:25;;;;;;;15.43;13.93;;;;;;;16.52;55.74;101153.91;5047455;28;20044;-81
2023/04/21 11:01:50;;;;;;;15.18;13.75;;;;;;;16.23;57.06;101149.50;5044154;28;20132;-82
2023/04/21 11:04:18;;;;;;;14.77;13.20;;;;;;;15.87;58.08;101145.75;5040535;28;20466;-83
2023/04/21 11:07:06;;;;;;;15.55;12.50;;;;;;;15.60;58.24;101141.13;5040117;28;20041;-83
2023/04/21 11:09:32;;;;;;;14.20;12.88;;;;;;;15.32;59.14;101139.28;5038192;28;20033;-81
2023/04/21 11:12:01;;;;;;;15.10;13.68;;;;;;;15.23;60.62;101137.44;5048503;28;20377;-83